Airfield :
LOGIN :

Register | Disclaimer

   EN    FR    IT 

 










Legend :    VFR   Marginal VFR   IFR   Intensive IFR   Very Intensive IFR
Visi :
Ceiling :
>= 8 km
>= 3000ft
5 to 8 km
1000 to 3000 ft
1500m to 5 km
500 to 1000 ft
800 to 1500m
200 to 500 ft
< 800m
< 200 ft
Symbols :   Thunderstorms  Fog  Heavy snow  Heavy precipitations  Wind > 20 kt
SIGMETs :     Misc.  Thunderstorms  Icing  Turbulence  Mountain Waves  Volcanic Ashes






- Airport Elevation : 55 ft
- IATA code : DSA


EGCN - Robin Hood Doncaster Sheffield

CURRENT METAR :
  • 271850Z AUTO 13004KT 9000 NCD 08/07 Q1008

EXPIRED METARs :
  • 271820Z AUTO 17005KT 9000 NCD 08/07 Q1008
  • 271750Z 17006KT CAVOK 08/07 Q1009
  • 271720Z 17007KT CAVOK 08/07 Q1009
  • 271650Z 17005KT CAVOK 07/06 Q1009
  • 271620Z 17007KT CAVOK 09/07 Q1010

TAF TAF EGCN
Valid from the 27 at 18:00 until the 28 at 18:00 UTC


271704Z 2718/2818 17006KT 9999 FEW020
TEMPO 2718/2810 2000 BR BKN004
PROB30 2721/2809 0300 FG VV///
PROB30 2810/2815 6000 BKN014
BECMG 2815/2818 6000
PROB30 2815/2818 4000 BR BKN006



MET'MAP, your aeronautical weather chart ! - Copyright ORBIFLY December 2007 - Disclaimer

ORBIFLY MET'MAP TEAM :

Programming & Development : Alexandra Zaïnal
Original concept : Baudouin d'Aumeries
Technical & hardware support : Manuel Goepfert
Assistance : Marc-Olivier Méhu




SOURCES & CREDITS :

   NOAA